Time;durP1;ratioP1;P1;durP2;ratioP2;P2;SDS_P1;SDS_P2;PMS_P1;PMS_P2;Temp;Humidity;BMP_temperature;BMP_pressure;BME280_temperature;BME280_humidity;BME280_pressure;Samples;Min_cycle;Max_cycle;Signal;HPM_P1;HPM_P2
2024/02/08 00:01:59;;;;;;;114.23;33.57;;;4.10;99.90;;;;;;5043771;28;20200;-63
2024/02/08 00:04:27;;;;;;;125.30;35.13;;;4.10;99.90;;;;;;5043782;28;20304;-62
2024/02/08 00:06:56;;;;;;;106.53;31.73;;;4.10;99.90;;;;;;5044211;28;20252;-63
2024/02/08 00:09:24;;;;;;;112.77;33.53;;;4.20;99.90;;;;;;5040262;28;20218;-62
2024/02/08 00:11:53;;;;;;;99.53;31.27;;;4.20;99.90;;;;;;5040468;28;20231;-62
2024/02/08 00:14:23;;;;;;;111.87;31.07;;;4.20;99.90;;;;;;5043901;28;20193;-62
2024/02/08 00:16:53;;;;;;;96.70;31.97;;;4.20;99.90;;;;;;5044340;28;20201;-62
2024/02/08 00:19:21;;;;;;;94.63;30.10;;;4.20;99.90;;;;;;5039133;28;20213;-62
2024/02/08 00:21:50;;;;;;;92.67;29.67;;;4.20;99.90;;;;;;5043961;28;20216;-62
2024/02/08 00:24:19;;;;;;;90.73;29.53;;;4.20;99.90;;;;;;5044652;28;20278;-63
2024/02/08 00:26:47;;;;;;;102.50;28.90;;;4.10;99.90;;;;;;5044616;28;20220;-62
2024/02/08 00:29:16;;;;;;;90.83;28.77;;;4.10;99.90;;;;;;5042451;28;20212;-62
2024/02/08 00:31:45;;;;;;;94.40;28.83;;;4.10;99.90;;;;;;5045246;28;20212;-62
2024/02/08 00:34:18;;;;;;;95.40;28.70;;;4.20;99.90;;;;;;5043890;28;20842;-62
2024/02/08 00:36:51;;;;;;;87.03;29.77;;;4.20;99.90;;;;;;5042904;28;20271;-62
2024/02/08 00:39:19;;;;;;;100.53;31.63;;;4.20;99.90;;;;;;5042456;28;20234;-62
2024/02/08 00:41:51;;;;;;;98.73;29.27;;;4.20;99.90;;;;;;5042543;28;20228;-62
2024/02/08 00:44:20;;;;;;;98.70;28.63;;;4.10;99.90;;;;;;5038865;28;20209;-62
2024/02/08 00:46:51;;;;;;;102.97;29.17;;;4.10;99.90;;;;;;5042144;28;20203;-62
2024/02/08 00:49:26;;;;;;;95.73;31.87;;;4.10;99.90;;;;;;5040319;28;20228;-63
2024/02/08 00:51:54;;;;;;;103.00;30.67;;;4.10;99.90;;;;;;5042733;28;20223;-62
2024/02/08 00:54:24;;;;;;;102.77;31.70;;;4.00;99.90;;;;;;5040306;28;20240;-62
2024/02/08 00:56:53;;;;;;;91.17;30.57;;;4.00;99.90;;;;;;5043381;28;20244;-62
2024/02/08 00:59:22;;;;;;;102.03;31.83;;;4.00;99.90;;;;;;5041967;28;20200;-62
2024/02/08 01:01:51;;;;;;;103.83;32.67;;;4.10;99.90;;;;;;5043609;28;20255;-62
2024/02/08 01:04:21;;;;;;;107.53;33.43;;;4.10;99.90;;;;;;5041799;28;20240;-63
2024/02/08 01:06:49;;;;;;;111.93;32.17;;;4.10;99.90;;;;;;5045817;28;20679;-62
2024/02/08 01:09:17;;;;;;;101.83;32.37;;;4.10;99.90;;;;;;5044156;28;20970;-62
2024/02/08 01:11:49;;;;;;;103.57;32.27;;;4.10;99.90;;;;;;5040677;28;20579;-62
2024/02/08 01:14:21;;;;;;;102.53;31.30;;;4.00;99.90;;;;;;5041244;28;20192;-61
2024/02/08 01:16:51;;;;;;;102.50;30.20;;;4.00;99.90;;;;;;5046293;28;20197;-62
2024/02/08 01:19:23;;;;;;;119.73;34.07;;;4.00;99.90;;;;;;5042038;28;21496;-62
2024/02/08 01:21:52;;;;;;;105.93;33.27;;;4.00;99.90;;;;;;5042313;28;20221;-63
2024/02/08 01:24:20;;;;;;;123.23;34.77;;;4.00;99.90;;;;;;5040608;28;20218;-62
2024/02/08 01:26:49;;;;;;;123.90;35.90;;;4.00;99.90;;;;;;5049533;28;20240;-63
2024/02/08 01:29:18;;;;;;;129.17;35.23;;;4.00;99.90;;;;;;5047629;28;20705;-63
2024/02/08 01:31:46;;;;;;;131.13;35.37;;;4.00;99.90;;;;;;5044758;28;20217;-62
2024/02/08 01:34:15;;;;;;;118.63;33.77;;;4.00;99.90;;;;;;5044842;28;20302;-62
2024/02/08 01:36:46;;;;;;;124.50;34.40;;;4.00;99.90;;;;;;5044169;28;20221;-62
2024/02/08 01:39:22;;;;;;;138.10;34.50;;;4.10;99.90;;;;;;5047115;28;20503;-63
2024/02/08 01:41:51;;;;;;;129.30;34.73;;;4.10;99.90;;;;;;5044734;28;20224;-62
2024/02/08 01:44:21;;;;;;;116.10;31.90;;;4.00;99.90;;;;;;5044674;28;20216;-62
2024/02/08 01:46:50;;;;;;;127.07;33.97;;;4.00;99.90;;;;;;5047768;28;20204;-62
2024/02/08 01:49:22;;;;;;;117.77;31.83;;;4.00;99.90;;;;;;5047334;28;20643;-63
2024/02/08 01:51:59;;;;;;;104.03;30.07;;;4.00;99.90;;;;;;5035202;28;20231;-62
2024/02/08 01:54:30;;;;;;;120.33;30.57;;;4.00;99.90;;;;;;5038330;28;20336;-62
2024/02/08 01:57:03;;;;;;;112.13;31.33;;;4.00;99.90;;;;;;5047267;28;20263;-63
2024/02/08 01:59:32;;;;;;;118.90;30.93;;;4.00;99.90;;;;;;5047058;28;20228;-62
2024/02/08 02:02:02;;;;;;;101.70;29.90;;;4.00;99.90;;;;;;5048437;28;20201;-62
2024/02/08 02:04:31;;;;;;;115.23;30.80;;;4.00;99.90;;;;;;5042386;28;20279;-62
2024/02/08 02:07:03;;;;;;;102.73;29.23;;;3.90;99.90;;;;;;5061066;28;20266;-62
2024/02/08 02:09:32;;;;;;;101.33;28.63;;;3.90;99.90;;;;;;5041784;28;20212;-62
2024/02/08 02:12:04;;;;;;;106.93;29.03;;;3.90;99.90;;;;;;5043143;28;20224;-62
2024/02/08 02:14:35;;;;;;;106.20;28.93;;;3.90;99.90;;;;;;5047486;28;20225;-62
2024/02/08 02:17:15;;;;;;;102.00;28.33;;;3.90;99.90;;;;;;5046827;28;20280;-63
2024/02/08 02:19:46;;;;;;;97.70;27.57;;;3.90;99.90;;;;;;5046219;28;20701;-63
2024/02/08 02:22:19;;;;;;;99.70;28.47;;;3.90;99.90;;;;;;5045070;28;20221;-62
2024/02/08 02:24:49;;;;;;;98.90;29.17;;;3.90;99.90;;;;;;5045154;28;20231;-62
2024/02/08 02:27:18;;;;;;;105.60;28.40;;;3.90;99.90;;;;;;5047028;28;20733;-62
2024/02/08 02:29:53;;;;;;;91.27;27.13;;;4.00;99.90;;;;;;5045480;28;20229;-62
2024/02/08 02:32:22;;;;;;;104.00;27.00;;;4.00;99.90;;;;;;5046519;28;20194;-62
2024/02/08 02:34:53;;;;;;;100.17;28.63;;;4.00;99.90;;;;;;5041449;28;20225;-62
2024/02/08 02:37:23;;;;;;;96.50;27.10;;;4.00;99.90;;;;;;5044274;28;20719;-63
2024/02/08 02:39:52;;;;;;;86.23;25.70;;;4.00;99.90;;;;;;5044885;28;20251;-63
2024/02/08 02:42:21;;;;;;;94.77;26.83;;;4.00;99.90;;;;;;5043862;28;20213;-61
2024/02/08 02:44:49;;;;;;;81.67;25.03;;;4.00;99.90;;;;;;5044570;28;20240;-62
2024/02/08 02:47:25;;;;;;;84.10;26.00;;;4.00;99.90;;;;;;5044367;28;20192;-62
2024/02/08 02:49:55;;;;;;;90.73;26.93;;;4.00;99.90;;;;;;5041735;28;20197;-62
2024/02/08 02:52:25;;;;;;;96.60;26.20;;;4.00;99.90;;;;;;5044073;28;20217;-63
2024/02/08 02:54:54;;;;;;;89.67;25.87;;;4.00;99.90;;;;;;5045838;28;20563;-62
2024/02/08 02:57:22;;;;;;;85.17;26.03;;;4.00;99.90;;;;;;5045361;28;20879;-63
2024/02/08 02:59:50;;;;;;;89.00;27.27;;;4.00;99.90;;;;;;5041074;28;20229;-63
2024/02/08 03:02:28;;;;;;;89.80;25.73;;;3.90;99.90;;;;;;5044153;28;20200;-62
2024/02/08 03:04:56;;;;;;;93.27;27.30;;;4.00;99.90;;;;;;5042024;28;20220;-63
2024/02/08 03:07:28;;;;;;;90.57;25.77;;;4.00;99.90;;;;;;5045693;28;20263;-63
2024/02/08 03:09:57;;;;;;;80.60;25.07;;;4.00;99.90;;;;;;5041093;28;20221;-64
2024/02/08 03:12:26;;;;;;;78.67;24.53;;;4.00;99.90;;;;;;5041495;28;20235;-64
2024/02/08 03:15:01;;;;;;;71.13;24.13;;;3.90;99.90;;;;;;5042935;28;20217;-64
2024/02/08 03:17:32;;;;;;;81.83;24.17;;;3.90;99.90;;;;;;5044558;28;20203;-63
2024/02/08 03:20:04;;;;;;;83.90;26.17;;;3.90;99.90;;;;;;5047656;28;20193;-63
2024/02/08 03:22:35;;;;;;;83.80;24.93;;;3.90;99.90;;;;;;5042140;28;20220;-63
2024/02/08 03:25:05;;;;;;;74.80;24.47;;;3.90;99.90;;;;;;5042180;28;20229;-63
2024/02/08 03:27:33;;;;;;;86.50;24.93;;;3.90;99.90;;;;;;5044243;28;20224;-63
2024/02/08 03:30:04;;;;;;;91.03;26.00;;;3.90;99.90;;;;;;5044696;28;20217;-63
2024/02/08 03:32:35;;;;;;;81.93;25.37;;;3.90;99.90;;;;;;5044087;28;20217;-63
2024/02/08 03:35:05;;;;;;;85.53;25.53;;;4.00;99.90;;;;;;5045562;28;20236;-63
2024/02/08 03:37:35;;;;;;;81.43;25.10;;;4.00;99.90;;;;;;5044221;28;20668;-63
2024/02/08 03:40:04;;;;;;;90.03;26.43;;;3.90;99.90;;;;;;5040888;28;20298;-63
2024/02/08 03:42:33;;;;;;;85.67;26.00;;;3.90;99.90;;;;;;5041802;28;20220;-64
2024/02/08 03:45:01;;;;;;;79.17;24.00;;;3.90;99.90;;;;;;5044698;28;20232;-63
2024/02/08 03:47:32;;;;;;;78.57;23.20;;;4.00;99.90;;;;;;5043482;28;21300;-63
2024/02/08 03:50:00;;;;;;;70.00;22.13;;;3.90;99.90;;;;;;5042273;28;20201;-63
2024/02/08 03:52:30;;;;;;;75.33;21.87;;;3.90;99.90;;;;;;5041790;28;20303;-63
2024/02/08 03:55:01;;;;;;;67.63;22.10;;;3.90;99.90;;;;;;5038471;28;20212;-66
2024/02/08 03:57:31;;;;;;;64.93;21.03;;;3.90;99.90;;;;;;5040839;28;20224;-63
2024/02/08 04:00:02;;;;;;;69.77;21.23;;;3.90;99.90;;;;;;5043436;28;20320;-64
2024/02/08 04:02:34;;;;;;;62.43;20.80;;;3.90;99.90;;;;;;5043377;28;20200;-63
2024/02/08 04:05:06;;;;;;;68.37;21.70;;;3.90;99.90;;;;;;5045201;28;20204;-63
2024/02/08 04:07:56;;;;;;;83.37;22.57;;;3.90;99.90;;;;;;5043037;28;20300;-63
2024/02/08 04:53:30;;;;;;;71.00;21.53;;;3.90;99.90;;;;;;5038515;28;20707;-64
2024/02/08 04:54:54;;;;;;;86.57;24.10;;;3.80;99.90;;;;;;5044312;28;20279;-63
2024/02/08 04:57:26;;;;;;;86.20;24.27;;;3.80;99.90;;;;;;5043802;28;20701;-63
2024/02/08 04:59:59;;;;;;;94.50;26.23;;;3.90;99.90;;;;;;5045753;28;20266;-63
2024/02/08 05:02:29;;;;;;;92.87;25.50;;;3.90;99.90;;;;;;5040216;28;20216;-63
2024/02/08 05:04:58;;;;;;;98.00;24.93;;;3.90;99.90;;;;;;5048415;28;20302;-64
2024/02/08 05:07:26;;;;;;;95.50;24.80;;;3.90;99.90;;;;;;5043601;28;20221;-63
2024/02/08 05:09:58;;;;;;;83.23;24.23;;;3.90;99.90;;;;;;5045711;28;20216;-63
2024/02/08 05:12:30;;;;;;;87.87;24.90;;;3.90;99.90;;;;;;5044640;28;20219;-63
2024/02/08 05:15:02;;;;;;;85.13;24.70;;;3.90;99.90;;;;;;5060852;28;20213;-64
2024/02/08 05:17:31;;;;;;;85.80;24.20;;;3.90;99.90;;;;;;5046521;28;20353;-64
2024/02/08 05:19:59;;;;;;;92.80;26.20;;;3.90;99.90;;;;;;5047681;28;20276;-64
2024/02/08 05:22:30;;;;;;;81.77;24.73;;;3.80;99.90;;;;;;5045552;28;20637;-64
2024/02/08 05:25:01;;;;;;;83.50;24.53;;;3.90;99.90;;;;;;5047121;28;20731;-64
2024/02/08 05:27:31;;;;;;;77.53;23.30;;;3.90;99.90;;;;;;5046937;28;20213;-64
2024/02/08 05:30:01;;;;;;;90.17;25.50;;;3.90;99.90;;;;;;5044730;28;20667;-64
2024/02/08 05:32:29;;;;;;;82.47;24.50;;;3.90;99.90;;;;;;5044224;28;20204;-64
2024/02/08 05:34:58;;;;;;;90.30;25.27;;;3.90;99.90;;;;;;5061831;28;20220;-64
2024/02/08 05:37:29;;;;;;;85.67;25.37;;;3.90;99.90;;;;;;5045467;28;20223;-64
2024/02/08 05:39:57;;;;;;;80.90;23.77;;;3.90;99.90;;;;;;5046434;28;20240;-63
2024/02/08 05:42:26;;;;;;;79.57;23.93;;;3.90;99.90;;;;;;5045153;28;20282;-64
2024/02/08 05:45:18;;;;;;;100.33;26.03;;;3.90;99.90;;;;;;5044027;28;20213;-64
2024/02/08 05:47:45;;;;;;;83.17;24.93;;;3.90;99.90;;;;;;5048092;28;20229;-64
2024/02/08 05:50:21;;;;;;;82.60;24.30;;;3.90;99.90;;;;;;5042632;28;20682;-63
2024/02/08 05:52:51;;;;;;;87.67;25.53;;;3.90;99.90;;;;;;5041927;28;20199;-64
2024/02/08 05:55:20;;;;;;;90.17;25.50;;;3.90;99.90;;;;;;5043345;28;20221;-64
2024/02/08 05:57:48;;;;;;;84.23;25.50;;;3.90;99.90;;;;;;5044988;28;20267;-63
2024/02/08 06:00:32;;;;;;;79.70;25.87;;;4.00;99.90;;;;;;5046863;28;20240;-63
2024/02/08 06:03:03;;;;;;;97.60;26.10;;;4.00;99.90;;;;;;5045414;28;20222;-63
2024/02/08 06:05:32;;;;;;;89.00;25.93;;;4.00;99.90;;;;;;5044255;28;20236;-64
2024/02/08 06:08:02;;;;;;;88.70;27.83;;;4.00;99.90;;;;;;5042937;28;20217;-64
2024/02/08 06:10:45;;;;;;;97.47;27.20;;;4.00;99.90;;;;;;5045156;28;20658;-63
2024/02/08 06:13:16;;;;;;;88.60;26.43;;;3.90;99.90;;;;;;5045816;28;20223;-63
2024/02/08 06:15:47;;;;;;;100.23;27.87;;;4.00;99.90;;;;;;5046171;28;20626;-63
2024/02/08 06:18:25;;;;;;;102.27;27.17;;;4.00;99.90;;;;;;5044338;28;20322;-64
2024/02/08 06:20:59;;;;;;;88.17;25.93;;;4.00;99.90;;;;;;5043995;28;20232;-62
2024/02/08 06:23:34;;;;;;;89.17;26.23;;;4.00;99.90;;;;;;5044099;28;20736;-63
2024/02/08 06:28:46;;;;;;;90.20;25.90;;;4.00;99.90;;;;;;5046008;28;20231;-62
2024/02/08 06:31:17;;;;;;;95.13;26.97;;;4.00;99.90;;;;;;5048391;28;20227;-63
2024/02/08 06:36:33;;;;;;;87.70;25.40;;;4.00;99.90;;;;;;5043493;28;20220;-63
2024/02/08 06:39:20;;;;;;;93.80;25.70;;;4.00;99.90;;;;;;5046064;28;20916;-63
2024/02/08 06:42:07;;;;;;;90.17;26.10;;;4.00;99.90;;;;;;5042123;28;20291;-63
2024/02/08 06:44:53;;;;;;;99.47;27.90;;;4.00;99.90;;;;;;5040373;28;20224;-63
2024/02/08 06:47:54;;;;;;;88.83;25.13;;;4.00;99.90;;;;;;5043007;28;20212;-63
2024/02/08 07:37:59;;;;;;;88.60;23.37;;;4.00;99.90;;;;;;5045913;28;20189;-63
2024/02/08 07:40:34;;;;;;;82.90;24.13;;;4.00;99.90;;;;;;5041410;28;20703;-63
2024/02/08 07:43:19;;;;;;;84.47;23.03;;;4.00;99.90;;;;;;5043079;28;20313;-63
2024/02/08 07:45:51;;;;;;;83.40;24.17;;;4.10;99.90;;;;;;5041814;28;20233;-63
2024/02/08 07:48:37;;;;;;;84.17;23.33;;;4.10;99.90;;;;;;5042478;28;20270;-63
2024/02/08 07:51:07;;;;;;;83.13;23.87;;;4.00;99.90;;;;;;5041136;28;20695;-63
2024/02/08 07:53:45;;;;;;;84.93;23.40;;;4.10;99.90;;;;;;5045383;28;20318;-63
2024/02/08 07:56:37;;;;;;;80.60;22.40;;;4.10;99.90;;;;;;5043841;28;20690;-63
2024/02/08 07:59:10;;;;;;;80.20;23.30;;;4.10;99.90;;;;;;5044028;28;20250;-63
2024/02/08 08:01:39;;;;;;;81.80;23.03;;;4.10;99.90;;;;;;5039998;28;20214;-64
2024/02/08 08:04:12;;;;;;;93.67;24.03;;;4.10;99.90;;;;;;5043723;28;20228;-63
2024/02/08 08:06:47;;;;;;;77.20;21.53;;;4.10;99.90;;;;;;5042828;28;20706;-63
2024/02/08 08:09:21;;;;;;;79.43;22.13;;;4.10;99.90;;;;;;5040194;28;20873;-63
2024/02/08 08:11:53;;;;;;;82.87;22.73;;;4.20;99.90;;;;;;5042967;28;20217;-64
2024/02/08 08:17:31;;;;;;;83.47;21.30;;;4.20;99.90;;;;;;5038197;28;20569;-63
2024/02/08 08:20:15;;;;;;;73.53;21.27;;;4.20;99.90;;;;;;5045290;28;20193;-63
2024/02/08 08:22:58;;;;;;;84.00;21.93;;;4.20;99.90;;;;;;5041804;28;20216;-63
2024/02/08 08:25:29;;;;;;;76.23;20.83;;;4.20;99.90;;;;;;5044477;28;20220;-63
2024/02/08 08:28:29;;;;;;;72.73;20.73;;;4.30;99.90;;;;;;5041250;28;20580;-63
2024/02/08 08:31:16;;;;;;;72.43;19.70;;;4.30;99.90;;;;;;5044212;28;20246;-63
2024/02/08 08:34:03;;;;;;;65.77;20.17;;;4.40;99.90;;;;;;5042979;28;20231;-63
2024/02/08 08:36:34;;;;;;;67.87;19.20;;;4.40;99.90;;;;;;5047866;28;20220;-63
2024/02/08 08:41:49;;;;;;;64.70;18.07;;;4.40;99.90;;;;;;5048540;28;20220;-63
2024/02/08 08:44:18;;;;;;;64.90;18.43;;;4.40;99.90;;;;;;5049426;28;20193;-62
2024/02/08 08:46:47;;;;;;;67.83;19.17;;;4.40;99.90;;;;;;5052248;28;20602;-62
2024/02/08 08:49:20;;;;;;;62.17;19.00;;;4.40;99.90;;;;;;5050590;28;20570;-62
2024/02/08 08:51:58;;;;;;;65.67;18.20;;;4.40;99.90;;;;;;5048685;28;20285;-63
2024/02/08 08:54:29;;;;;;;65.43;18.07;;;4.40;99.90;;;;;;5050730;28;20220;-63
2024/02/08 08:56:58;;;;;;;60.50;18.13;;;4.40;99.90;;;;;;5048291;28;20232;-62
2024/02/08 08:59:29;;;;;;;60.70;18.37;;;4.40;99.90;;;;;;5051244;28;20192;-63
2024/02/08 09:02:00;;;;;;;57.43;17.93;;;4.50;99.90;;;;;;5051467;28;20612;-62
2024/02/08 09:04:35;;;;;;;66.77;23.73;;;4.50;99.90;;;;;;5043729;28;20651;-62
2024/02/08 09:07:10;;;;;;;59.83;16.53;;;4.50;99.90;;;;;;5048704;28;20306;-62
2024/02/08 09:10:00;;;;;;;51.87;15.97;;;4.50;99.90;;;;;;5046354;28;20212;-62
2024/02/08 09:12:36;;;;;;;65.33;26.03;;;4.50;99.90;;;;;;5052492;28;20222;-62
2024/02/08 09:15:26;;;;;;;76.17;31.67;;;4.60;99.90;;;;;;5048382;28;20686;-62
2024/02/08 09:18:08;;;;;;;49.83;16.17;;;4.50;99.90;;;;;;5048384;28;20217;-62
2024/02/08 09:20:38;;;;;;;55.90;15.20;;;4.50;99.90;;;;;;5050097;28;20327;-61
2024/02/08 09:23:14;;;;;;;57.27;18.60;;;4.50;99.90;;;;;;5050712;28;20197;-62
2024/02/08 09:25:44;;;;;;;50.53;15.70;;;4.60;99.90;;;;;;5050410;28;20222;-61
2024/02/08 09:28:29;;;;;;;57.60;15.60;;;4.60;99.90;;;;;;5053613;28;20225;-61
2024/02/08 09:31:12;;;;;;;51.97;13.93;;;4.60;99.90;;;;;;5051335;28;20216;-62
2024/02/08 09:34:00;;;;;;;44.07;14.63;;;4.70;99.90;;;;;;5048052;28;20301;-62
2024/02/08 09:36:29;;;;;;;47.33;13.07;;;4.70;99.90;;;;;;5049860;28;20216;-62
2024/02/08 09:38:58;;;;;;;47.57;15.90;;;4.80;99.90;;;;;;5047543;28;20228;-62
2024/02/08 09:41:27;;;;;;;42.37;13.03;;;4.80;99.90;;;;;;5048978;28;20191;-62
2024/02/08 09:43:57;;;;;;;44.77;13.30;;;4.80;99.90;;;;;;5048279;28;20203;-62
2024/02/08 09:49:14;;;;;;;47.70;13.37;;;4.80;99.90;;;;;;5043048;28;20216;-62
2024/02/08 09:51:52;;;;;;;42.33;12.30;;;4.80;99.90;;;;;;5042877;28;20696;-62
2024/02/08 09:54:28;;;;;;;40.93;12.50;;;4.90;99.90;;;;;;5043546;28;20248;-62
2024/02/08 09:57:02;;;;;;;44.77;13.20;;;5.00;99.90;;;;;;5042979;28;20263;-62
2024/02/08 10:02:32;;;;;;;43.40;12.93;;;5.00;99.90;;;;;;5046794;28;20204;-62
2024/02/08 10:05:19;;;;;;;39.03;13.00;;;5.00;99.90;;;;;;5045887;28;20291;-61
2024/02/08 10:08:05;;;;;;;44.80;13.53;;;5.00;99.90;;;;;;5045623;28;20232;-61
2024/02/08 10:10:43;;;;;;;42.83;12.70;;;5.10;99.90;;;;;;5043296;28;20340;-62
2024/02/08 10:13:26;;;;;;;46.27;13.27;;;5.10;99.90;;;;;;5044540;28;20308;-61
2024/02/08 10:15:56;;;;;;;35.93;12.17;;;5.10;99.90;;;;;;5045962;28;20323;-62
2024/02/08 10:18:37;;;;;;;40.33;12.63;;;5.00;99.90;;;;;;5045420;28;20212;-62
2024/02/08 10:21:12;;;;;;;38.53;12.63;;;5.00;99.90;;;;;;5045176;28;20220;-62
2024/02/08 10:23:59;;;;;;;36.47;12.23;;;5.10;99.90;;;;;;5042518;28;20243;-62
2024/02/08 10:26:38;;;;;;;39.87;12.50;;;5.20;99.90;;;;;;5044684;28;20284;-62
2024/02/08 10:29:14;;;;;;;50.67;12.97;;;5.20;99.90;;;;;;5039817;28;20207;-62
2024/02/08 10:31:47;;;;;;;43.73;15.27;;;5.20;99.90;;;;;;5040489;28;20216;-61
2024/02/08 10:34:33;;;;;;;37.43;13.00;;;5.20;99.90;;;;;;5047065;28;20224;-62
2024/02/08 10:37:06;;;;;;;33.97;11.57;;;5.20;99.90;;;;;;5045679;28;20236;-62
2024/02/08 10:39:57;;;;;;;43.23;13.37;;;5.20;99.90;;;;;;5041890;28;20286;-61
2024/02/08 10:42:29;;;;;;;42.37;12.47;;;5.30;99.90;;;;;;5041874;28;20244;-62
2024/02/08 10:45:05;;;;;;;40.40;13.27;;;5.40;99.90;;;;;;5046211;28;20270;-62
2024/02/08 10:47:39;;;;;;;40.40;12.10;;;5.40;99.90;;;;;;5043477;28;20699;-62
2024/02/08 10:50:19;;;;;;;38.17;12.10;;;5.40;99.90;;;;;;5043454;28;20203;-62
2024/02/08 10:52:51;;;;;;;36.40;11.47;;;5.40;99.90;;;;;;5039261;28;20247;-62
2024/02/08 10:55:20;;;;;;;34.73;12.40;;;5.40;99.90;;;;;;5043311;28;20233;-62
2024/02/08 10:58:20;;;;;;;37.07;12.10;;;5.40;99.90;;;;;;5042341;28;20217;-61
2024/02/08 11:01:12;;;;;;;37.50;12.43;;;5.40;99.90;;;;;;5046716;28;20713;-61
2024/02/08 11:03:52;;;;;;;38.47;12.53;;;5.40;99.90;;;;;;5042124;28;20226;-62
2024/02/08 11:06:32;;;;;;;42.87;13.30;;;5.40;99.90;;;;;;5043647;28;20220;-61
2024/02/08 11:09:17;;;;;;;42.80;12.47;;;5.50;99.90;;;;;;5043084;28;20315;-62
2024/02/08 11:11:51;;;;;;;46.33;13.97;;;5.50;99.90;;;;;;5041130;28;20714;-61
2024/02/08 11:14:21;;;;;;;41.67;12.70;;;5.60;99.90;;;;;;5043428;28;20195;-61
2024/02/08 11:16:52;;;;;;;41.63;14.13;;;5.60;99.90;;;;;;5046804;28;20597;-61
2024/02/08 11:19:22;;;;;;;44.07;13.63;;;5.60;99.90;;;;;;5047974;28;20208;-61
2024/02/08 11:21:52;;;;;;;42.80;15.80;;;5.50;99.90;;;;;;5045700;28;20236;-61
2024/02/08 11:24:27;;;;;;;42.17;13.67;;;5.50;99.90;;;;;;5043404;28;20270;-62
2024/02/08 11:27:01;;;;;;;37.87;13.97;;;5.60;99.90;;;;;;5040632;28;20228;-61
2024/02/08 11:29:45;;;;;;;40.70;13.03;;;5.60;99.90;;;;;;5045743;28;20568;-61
2024/02/08 11:32:16;;;;;;;40.10;13.27;;;5.70;99.90;;;;;;5044735;28;20190;-62
2024/02/08 11:34:46;;;;;;;53.53;19.57;;;5.70;99.90;;;;;;5043666;28;20286;-61
2024/02/08 11:37:17;;;;;;;34.57;12.07;;;5.70;99.90;;;;;;5043736;28;20589;-61
2024/02/08 11:39:59;;;;;;;30.87;12.57;;;5.80;99.90;;;;;;5042779;28;20642;-62
2024/02/08 11:42:35;;;;;;;67.00;31.77;;;5.80;99.90;;;;;;5041074;28;20225;-62
2024/02/08 11:45:08;;;;;;;33.63;13.00;;;5.80;99.90;;;;;;5047942;28;20251;-63
2024/02/08 11:47:40;;;;;;;31.40;12.20;;;5.90;99.90;;;;;;5044345;28;20244;-62
2024/02/08 11:50:20;;;;;;;31.93;13.00;;;5.90;99.90;;;;;;5043504;28;20236;-62
2024/02/08 11:52:57;;;;;;;35.37;11.97;;;5.90;99.90;;;;;;5039986;28;20221;-62
2024/02/08 11:55:28;;;;;;;38.37;13.20;;;6.00;99.90;;;;;;5041137;28;20706;-62
2024/02/08 11:57:58;;;;;;;39.07;16.17;;;6.00;99.90;;;;;;5040779;28;20758;-62
2024/02/08 12:00:30;;;;;;;90.30;31.90;;;6.10;99.90;;;;;;5044500;28;20225;-62
2024/02/08 12:03:01;;;;;;;49.50;20.60;;;6.10;99.90;;;;;;5040719;28;20584;-62
2024/02/08 12:05:33;;;;;;;37.07;17.63;;;6.20;99.90;;;;;;5040632;28;20197;-61
2024/02/08 12:08:09;;;;;;;36.60;14.20;;;6.20;99.90;;;;;;5043314;28;20259;-62
2024/02/08 12:10:41;;;;;;;46.10;19.17;;;6.30;99.90;;;;;;5042418;28;20224;-62
2024/02/08 12:13:12;;;;;;;44.43;18.80;;;6.30;99.90;;;;;;5037419;28;20339;-62
2024/02/08 12:15:55;;;;;;;41.27;17.00;;;6.40;99.90;;;;;;5041970;28;20606;-62
2024/02/08 12:18:26;;;;;;;44.63;18.13;;;6.40;99.90;;;;;;5040958;28;20309;-62
2024/02/08 12:20:57;;;;;;;44.60;17.27;;;6.50;99.90;;;;;;5040073;28;20406;-61
2024/02/08 12:23:30;;;;;;;42.00;15.20;;;6.60;99.90;;;;;;5039886;28;20293;-63
2024/02/08 12:26:03;;;;;;;43.13;17.83;;;6.80;99.90;;;;;;5041672;28;20614;-62
2024/02/08 12:28:37;;;;;;;51.23;17.63;;;6.80;99.90;;;;;;5042436;28;20216;-62
2024/02/08 12:31:16;;;;;;;62.97;29.07;;;6.90;99.90;;;;;;5044084;28;20231;-61
2024/02/08 12:33:50;;;;;;;43.73;20.63;;;6.90;99.90;;;;;;5046442;28;20611;-61
2024/02/08 12:36:23;;;;;;;43.03;19.53;;;7.10;99.90;;;;;;5044848;28;20258;-61
2024/02/08 12:38:58;;;;;;;42.53;16.17;;;7.10;99.90;;;;;;5041848;28;20286;-62
2024/02/08 12:41:29;;;;;;;49.83;18.53;;;7.10;99.90;;;;;;5040555;28;20650;-62
2024/02/08 12:43:58;;;;;;;44.23;17.13;;;7.20;99.90;;;;;;5043995;28;20192;-62
2024/02/08 12:46:27;;;;;;;51.83;17.90;;;7.30;99.90;;;;;;5041115;28;20227;-62
2024/02/08 12:48:58;;;;;;;47.37;18.20;;;7.40;99.90;;;;;;5045539;28;20315;-61
2024/02/08 12:51:27;;;;;;;42.70;17.70;;;7.60;99.90;;;;;;5044355;28;20213;-61
2024/02/08 12:54:02;;;;;;;65.27;26.53;;;7.60;99.90;;;;;;5041461;28;20287;-62
2024/02/08 12:56:30;;;;;;;128.57;53.40;;;7.70;99.90;;;;;;5044579;28;20258;-62
2024/02/08 12:59:02;;;;;;;118.37;67.23;;;7.80;99.90;;;;;;5056080;28;20211;-62
2024/02/08 13:01:38;;;;;;;89.57;49.40;;;7.90;99.90;;;;;;5041147;28;20221;-61
2024/02/08 13:04:07;;;;;;;56.23;22.60;;;7.90;99.90;;;;;;5041549;28;20220;-62
2024/02/08 13:06:38;;;;;;;47.23;19.73;;;8.00;99.90;;;;;;5042289;28;20356;-62
2024/02/08 13:09:25;;;;;;;56.13;23.50;;;8.00;99.90;;;;;;5041370;28;20225;-62
2024/02/08 13:12:14;;;;;;;52.83;19.90;;;8.20;99.90;;;;;;5041914;28;20224;-62
2024/02/08 13:14:48;;;;;;;45.73;18.07;;;8.30;99.90;;;;;;5040963;28;20232;-63
2024/02/08 13:17:18;;;;;;;45.20;16.23;;;8.40;99.90;;;;;;5042035;28;20185;-59
2024/02/08 13:19:47;;;;;;;47.20;17.07;;;8.60;99.90;;;;;;5040025;28;20193;-62
2024/02/08 13:22:20;;;;;;;41.27;15.97;;;8.80;99.90;;;;;;5041799;28;20366;-62
2024/02/08 13:24:51;;;;;;;32.67;12.80;;;8.90;99.90;;;;;;5045123;28;20248;-62
2024/02/08 13:27:24;;;;;;;35.47;12.43;;;9.20;99.90;;;;;;5045912;28;20709;-62
2024/02/08 13:29:53;;;;;;;36.17;9.60;;;9.50;99.90;;;;;;5043615;28;20245;-62
2024/02/08 13:32:25;;;;;;;25.40;9.10;;;9.90;99.90;;;;;;5044911;28;20189;-62
2024/02/08 13:34:53;;;;;;;25.77;7.63;;;10.20;99.90;;;;;;5044005;28;20336;-62
2024/02/08 13:37:22;;;;;;;21.67;6.70;;;10.50;99.90;;;;;;5048752;28;20244;-62
2024/02/08 13:39:59;;;;;;;20.07;7.43;;;10.70;99.90;;;;;;5048038;28;20766;-62
2024/02/08 13:42:29;;;;;;;26.63;7.00;;;10.80;99.90;;;;;;5047743;28;20228;-62
2024/02/08 13:45:24;;;;;;;18.20;6.60;;;10.80;99.90;;;;;;5045761;28;20244;-63
2024/02/08 13:47:56;;;;;;;20.97;6.77;;;10.90;99.90;;;;;;5045572;28;20355;-62
2024/02/08 13:50:29;;;;;;;19.33;6.73;;;11.00;99.90;;;;;;5047863;28;20220;-62
2024/02/08 13:53:01;;;;;;;15.83;5.63;;;11.00;99.90;;;;;;5048240;28;20574;-62
2024/02/08 13:55:33;;;;;;;19.93;6.23;;;11.10;99.90;;;;;;5044427;28;20595;-62
2024/02/08 13:58:20;;;;;;;12.63;6.07;;;11.10;99.90;;;;;;5044850;28;20231;-62
2024/02/08 14:00:49;;;;;;;15.50;6.00;;;11.20;99.90;;;;;;5046101;28;20240;-62
2024/02/08 14:03:22;;;;;;;19.57;5.50;;;11.20;99.90;;;;;;5045903;28;20228;-62
2024/02/08 14:05:55;;;;;;;17.00;5.90;;;11.30;99.90;;;;;;5043213;28;20316;-62
2024/02/08 14:08:27;;;;;;;19.73;5.90;;;11.30;99.90;;;;;;5046272;28;20270;-63
2024/02/08 14:10:59;;;;;;;18.27;6.03;;;11.30;99.90;;;;;;5043762;28;20574;-62
2024/02/08 14:13:34;;;;;;;19.57;6.10;;;11.30;99.90;;;;;;5042299;28;20228;-62
2024/02/08 14:16:13;;;;;;;15.57;5.60;;;11.30;99.90;;;;;;5044318;28;20216;-61
2024/02/08 14:18:49;;;;;;;17.83;6.70;;;11.40;99.90;;;;;;5046090;28;20235;-62
2024/02/08 14:21:24;;;;;;;23.47;5.77;;;11.40;99.90;;;;;;5046735;28;20227;-62
2024/02/08 14:23:59;;;;;;;14.07;5.43;;;11.40;99.90;;;;;;5041106;28;20228;-63
2024/02/08 14:26:36;;;;;;;15.00;6.10;;;11.40;99.90;;;;;;5044467;28;20188;-62
2024/02/08 14:29:07;;;;;;;20.90;5.87;;;11.40;99.90;;;;;;5046150;28;20200;-62
2024/02/08 14:31:37;;;;;;;18.10;5.97;;;11.40;99.90;;;;;;5045763;28;20308;-62
2024/02/08 14:34:08;;;;;;;25.97;6.30;;;11.40;99.90;;;;;;5042773;28;20342;-62
2024/02/08 14:36:42;;;;;;;27.70;6.13;;;11.40;99.90;;;;;;5042567;28;20722;-62
2024/02/08 14:39:27;;;;;;;22.77;6.43;;;11.40;99.90;;;;;;5045213;28;20224;-62
2024/02/08 14:42:00;;;;;;;24.70;6.43;;;11.40;99.90;;;;;;5041160;28;22153;-62
2024/02/08 14:44:41;;;;;;;19.70;6.30;;;11.40;99.90;;;;;;5041834;28;20182;-62
2024/02/08 14:47:15;;;;;;;21.27;7.07;;;11.40;99.90;;;;;;5042486;28;20199;-63
2024/02/08 14:52:28;;;;;;;22.33;6.30;;;11.50;99.90;;;;;;5045087;28;20217;-62
2024/02/08 14:55:09;;;;;;;15.70;6.43;;;11.40;99.90;;;;;;5044489;28;20229;-62
2024/02/08 14:57:42;;;;;;;18.43;6.07;;;11.50;99.90;;;;;;5044594;28;20651;-62